createdAt,value
2018-04-25T00:02:31.498Z,101540.37
2018-04-25T00:05:34.792Z,101535.85
2018-04-25T00:08:38.273Z,101540.69
2018-04-25T00:11:42.176Z,101533.63
2018-04-25T00:14:45.493Z,101533.80
2018-04-25T00:17:49.927Z,101534.51
2018-04-25T00:20:54.207Z,101531.38
2018-04-25T00:23:58.539Z,101527.49
2018-04-25T00:27:02.011Z,101525.18
2018-04-25T00:30:05.291Z,101523.21
2018-04-25T00:33:08.657Z,101520.96
2018-04-25T00:36:12.880Z,101525.00
2018-04-25T00:39:16.195Z,101516.24
2018-04-25T00:42:19.504Z,101519.97
2018-04-25T00:45:22.781Z,101517.80
2018-04-25T00:48:27.192Z,101511.40
2018-04-25T00:51:30.522Z,101509.45
2018-04-25T00:54:33.868Z,101503.66
2018-04-25T00:57:38.313Z,101502.03
2018-04-25T01:00:42.386Z,101504.32
2018-04-25T01:03:45.748Z,101493.38
2018-04-25T01:06:50.056Z,101488.72
2018-04-25T01:09:53.348Z,101491.72
2018-04-25T01:12:56.749Z,101495.36
2018-04-25T01:16:00.254Z,101489.52
2018-04-25T01:19:03.601Z,101491.08
2018-04-25T01:22:06.948Z,101489.56
2018-04-25T01:25:10.309Z,101488.69
2018-04-25T01:28:14.672Z,101482.49
2018-04-25T01:31:18.547Z,101480.53
2018-04-25T01:34:22.273Z,101484.72
2018-04-25T01:37:31.156Z,101481.10
2018-04-25T01:40:34.492Z,101474.44
2018-04-25T01:43:37.865Z,101470.90
2018-04-25T01:46:43.228Z,101472.08
2018-04-25T01:49:46.636Z,101471.43
2018-04-25T01:53:01.249Z,101458.56
2018-04-25T01:56:15.772Z,101457.90
2018-04-25T01:59:30.356Z,101453.20
2018-04-25T02:02:36.928Z,101450.33
2018-04-25T02:05:40.174Z,101445.30
2018-04-25T02:08:44.706Z,101449.91
2018-04-25T02:11:48.009Z,101449.05
2018-04-25T02:14:51.408Z,101449.44
2018-04-25T02:17:54.808Z,101450.35
2018-04-25T02:20:58.112Z,101444.90
2018-04-25T02:24:02.531Z,101451.04
2018-04-25T02:27:05.820Z,101454.27
2018-04-25T02:30:09.150Z,101448.11
2018-04-25T02:33:13.252Z,101449.51
2018-04-25T02:36:16.640Z,101445.12
2018-04-25T02:39:19.935Z,101444.82
2018-04-25T02:42:23.283Z,101449.32
2018-04-25T02:45:26.627Z,101444.87
2018-04-25T02:48:29.964Z,101443.55
2018-04-25T02:51:33.292Z,101442.56
2018-04-25T02:54:36.625Z,101440.71
2018-04-25T02:57:39.922Z,101437.58
2018-04-25T03:00:44.355Z,101439.49
2018-04-25T03:03:47.744Z,101437.84
2018-04-25T03:06:51.001Z,101434.70
2018-04-25T03:09:54.299Z,101435.37
2018-04-25T03:12:57.609Z,101429.42
2018-04-25T03:16:01.317Z,101424.07
2018-04-25T03:19:04.640Z,101421.00
2018-04-25T03:22:08.040Z,101420.63
2018-04-25T03:25:11.936Z,101428.76
2018-04-25T03:28:15.187Z,101427.18
2018-04-25T03:31:18.838Z,101425.78
2018-04-25T03:34:22.155Z,101426.60
2018-04-25T03:37:25.452Z,101424.64
2018-04-25T03:40:28.888Z,101427.24
2018-04-25T03:43:32.264Z,101419.74
2018-04-25T03:46:35.446Z,101419.14
2018-04-25T03:49:38.841Z,101421.71
2018-04-25T03:52:42.775Z,101419.76
2018-04-25T03:55:47.188Z,101413.08
2018-04-25T03:58:50.586Z,101413.44
2018-04-25T04:01:53.893Z,101413.76
2018-04-25T04:04:57.235Z,101417.19
2018-04-25T04:08:00.484Z,101430.52
2018-04-25T04:11:04.833Z,101426.75
2018-04-25T04:14:08.103Z,101436.45
2018-04-25T04:17:12.286Z,101439.83
2018-04-25T04:20:15.530Z,101444.54
2018-04-25T04:23:19.108Z,101436.71
2018-04-25T04:26:22.601Z,101436.84
2018-04-25T04:29:26.112Z,101436.55
2018-04-25T04:32:30.030Z,101439.37
2018-04-25T04:35:33.581Z,101435.45
2018-04-25T04:38:37.264Z,101436.07
2018-04-25T04:41:41.123Z,101437.14
2018-04-25T04:44:45.265Z,101441.70
2018-04-25T04:47:49.589Z,101445.28
2018-04-25T04:50:53.251Z,101450.76
2018-04-25T04:53:56.924Z,101460.46
2018-04-25T04:57:00.323Z,101456.90
2018-04-25T05:00:04.196Z,101457.06
2018-04-25T05:03:07.720Z,101465.91
2018-04-25T05:06:11.366Z,101461.74
2018-04-25T05:09:15.302Z,101463.57
2018-04-25T05:12:18.816Z,101460.17
2018-04-25T05:15:22.389Z,101460.24
2018-04-25T05:18:25.927Z,101461.66
2018-04-25T05:21:29.471Z,101464.96
2018-04-25T05:24:33.385Z,101471.14
2018-04-25T05:27:36.580Z,101474.34
2018-04-25T05:30:39.976Z,101474.91
2018-04-25T05:33:43.291Z,101478.42
2018-04-25T05:36:46.623Z,101474.56
2018-04-25T05:39:49.752Z,101472.73
2018-04-25T05:42:53.909Z,101469.89
2018-04-25T05:45:57.385Z,101470.49
2018-04-25T05:49:00.582Z,101464.51
2018-04-25T05:52:03.889Z,101463.99
2018-04-25T05:55:07.317Z,101466.56
2018-04-25T05:58:10.677Z,101468.94
2018-04-25T06:01:13.997Z,101470.81
2018-04-25T06:04:17.339Z,101465.49
2018-04-25T06:07:21.649Z,101462.77
2018-04-25T06:10:25.049Z,101455.90
2018-04-25T06:13:28.376Z,101458.73
2018-04-25T06:16:32.751Z,101465.40
2018-04-25T06:19:36.220Z,101463.74
2018-04-25T06:22:39.853Z,101465.85
2018-04-25T06:25:43.175Z,101463.40
2018-04-25T06:28:46.613Z,101464.59
2018-04-25T06:31:50.040Z,101470.96
2018-04-25T06:34:53.485Z,101473.87
2018-04-25T06:37:56.775Z,101471.59
2018-04-25T06:41:00.128Z,101472.10
2018-04-25T06:44:03.444Z,101474.13
2018-04-25T06:47:06.705Z,101479.75
2018-04-25T06:50:10.099Z,101475.37
2018-04-25T06:53:14.427Z,101468.22
2018-04-25T06:56:18.749Z,101471.37
2018-04-25T06:59:22.796Z,101465.00
2018-04-25T07:02:26.193Z,101463.92
2018-04-25T07:05:29.468Z,101454.85
2018-04-25T07:08:32.881Z,101452.13
2018-04-25T07:11:36.288Z,101449.25
2018-04-25T07:14:39.552Z,101442.05
2018-04-25T07:17:42.943Z,101447.93
2018-04-25T07:20:46.336Z,101443.45
2018-04-25T07:23:49.767Z,101447.81
2018-04-25T07:26:53.423Z,101445.79
2018-04-25T07:29:56.745Z,101450.31
2018-04-25T07:33:00.085Z,101441.26
2018-04-25T07:36:05.465Z,101441.81
2018-04-25T07:39:08.789Z,101442.14
2018-04-25T07:42:12.100Z,101449.64
2018-04-25T07:45:15.628Z,101461.66
2018-04-25T07:48:19.065Z,101464.39
2018-04-25T07:51:23.452Z,101471.03
2018-04-25T07:54:26.807Z,101468.63
2018-04-25T07:57:30.125Z,101482.18
2018-04-25T08:00:33.596Z,101474.90
2018-04-25T08:03:36.923Z,101474.84
2018-04-25T08:06:40.293Z,101478.59
2018-04-25T08:09:44.607Z,101471.37
2018-04-25T08:13:59.597Z,101479.51
2018-04-25T08:18:16.164Z,101481.48
2018-04-25T08:21:20.526Z,101483.11
2018-04-25T08:24:24.888Z,101486.35
2018-04-25T08:27:29.220Z,101483.73
2018-04-25T08:30:32.580Z,101485.15
2018-04-25T08:33:35.939Z,101481.59
2018-04-25T08:36:39.149Z,101486.96
2018-04-25T08:39:42.484Z,101479.55
2018-04-25T08:42:45.819Z,101479.57
2018-04-25T08:45:49.218Z,101480.61
2018-04-25T08:48:53.859Z,101488.54
2018-04-25T08:51:57.146Z,101488.54
2018-04-25T08:55:00.481Z,101485.59
2018-04-25T08:58:03.736Z,101487.10
2018-04-25T09:01:07.085Z,101495.22
2018-04-25T09:04:10.352Z,101485.22
2018-04-25T09:07:13.730Z,101497.63
2018-04-25T09:10:17.079Z,101494.59
2018-04-25T09:13:20.509Z,101493.08
2018-04-25T09:16:24.532Z,101491.76
2018-04-25T09:19:27.850Z,101489.46
2018-04-25T09:22:36.245Z,101489.66
2018-04-25T09:25:39.696Z,101495.79
2018-04-25T09:28:42.990Z,101490.04
2018-04-25T09:31:46.250Z,101492.90
2018-04-25T09:34:49.474Z,101493.72
2018-04-25T09:37:53.719Z,101493.29
2018-04-25T09:40:57.073Z,101482.00
2018-04-25T09:44:00.450Z,101495.69
2018-04-25T09:47:03.771Z,101490.81
2018-04-25T09:50:07.241Z,101488.11
2018-04-25T09:53:10.559Z,101490.65
2018-04-25T09:56:13.849Z,101479.67
2018-04-25T09:59:17.251Z,101484.77
2018-04-25T10:02:24.800Z,101479.67
2018-04-25T10:05:28.183Z,101480.96
2018-04-25T10:08:31.561Z,101472.65
2018-04-25T10:11:34.969Z,101485.53
2018-04-25T10:14:38.234Z,101481.54
2018-04-25T10:17:41.674Z,101486.65
2018-04-25T10:20:46.031Z,101481.99
2018-04-25T10:23:49.326Z,101479.14
2018-04-25T10:26:52.704Z,101476.77
2018-04-25T10:29:55.984Z,101481.64
2018-04-25T10:32:59.301Z,101482.89
2018-04-25T10:36:02.675Z,101478.78
2018-04-25T10:39:05.866Z,101476.76
2018-04-25T10:42:09.165Z,101472.01
2018-04-25T10:45:12.532Z,101480.91
2018-04-25T10:48:15.756Z,101477.52
2018-04-25T10:51:19.109Z,101484.93
2018-04-25T10:54:23.615Z,101483.69
2018-04-25T10:57:26.848Z,101485.26
2018-04-25T11:00:31.507Z,101480.31
2018-04-25T11:03:35.036Z,101486.04
2018-04-25T11:06:38.427Z,101486.98
2018-04-25T11:09:41.681Z,101500.69
2018-04-25T11:12:45.009Z,101499.18
2018-04-25T11:15:48.190Z,101503.10
2018-04-25T11:18:52.789Z,101503.59
2018-04-25T11:21:56.039Z,101505.38
2018-04-25T11:24:59.373Z,101508.24
2018-04-25T11:28:02.692Z,101515.44
2018-04-25T11:31:06.102Z,101520.09
2018-04-25T11:34:09.365Z,101518.50
2018-04-25T11:37:13.094Z,101522.90
2018-04-25T11:40:16.728Z,101524.44
2018-04-25T11:43:20.118Z,101508.22
2018-04-25T11:46:24.130Z,101499.81
2018-04-25T11:49:27.411Z,101498.04
2018-04-25T11:52:30.979Z,101499.61
2018-04-25T11:55:34.246Z,101488.26
2018-04-25T11:58:37.564Z,101472.12
2018-04-25T12:01:41.943Z,101470.28
2018-04-25T12:04:45.322Z,101475.44
2018-04-25T12:07:48.647Z,101472.56
2018-04-25T12:10:52.525Z,101481.45
2018-04-25T12:13:56.936Z,101470.68
2018-04-25T12:17:00.385Z,101472.12
2018-04-25T12:20:03.767Z,101485.51
2018-04-25T12:23:07.446Z,101486.00
2018-04-25T12:26:10.747Z,101489.21
2018-04-25T12:29:14.167Z,101489.13
2018-04-25T12:32:17.475Z,101492.27
2018-04-25T12:35:20.772Z,101487.24
2018-04-25T12:38:24.146Z,101507.92
2018-04-25T12:41:27.424Z,101499.19
2018-04-25T12:44:30.774Z,101525.54
2018-04-25T12:47:34.075Z,101524.80
2018-04-25T12:50:38.408Z,101530.91
2018-04-25T12:53:41.680Z,101530.84
2018-04-25T12:56:45.097Z,101525.25
2018-04-25T12:59:51.639Z,101531.21
2018-04-25T13:02:54.983Z,101539.33
2018-04-25T13:05:58.372Z,101541.18
2018-04-25T13:09:01.741Z,101549.18
2018-04-25T13:12:05.067Z,101548.21
2018-04-25T13:15:08.450Z,101569.75
2018-04-25T13:18:12.900Z,101559.97
2018-04-25T13:21:16.286Z,101560.86
2018-04-25T13:24:20.632Z,101560.85
2018-04-25T13:27:23.995Z,101564.70
2018-04-25T13:30:27.299Z,101561.12
2018-04-25T13:33:30.527Z,101554.14
2018-04-25T13:36:33.774Z,101551.38
2018-04-25T13:39:37.380Z,101557.88
2018-04-25T13:42:40.688Z,101571.43
2018-04-25T13:45:44.165Z,101571.66
2018-04-25T13:48:47.620Z,101571.57
2018-04-25T13:51:51.000Z,101572.61
2018-04-25T13:54:54.483Z,101568.62
2018-04-25T13:57:57.672Z,101569.63
2018-04-25T14:01:00.961Z,101569.59
2018-04-25T14:04:04.308Z,101546.02
2018-04-25T14:07:07.768Z,101538.99
2018-04-25T14:10:11.067Z,101539.50
2018-04-25T14:13:14.423Z,101539.05
2018-04-25T14:16:17.694Z,101547.65
2018-04-25T14:19:20.924Z,101543.70
2018-04-25T14:22:24.276Z,101535.66
2018-04-25T14:25:28.714Z,101522.65
2018-04-25T14:28:32.126Z,101525.57
2018-04-25T14:31:35.525Z,101522.71
2018-04-25T14:34:38.820Z,101507.39
2018-04-25T14:37:42.227Z,101501.00
2018-04-25T14:40:45.399Z,101511.84
2018-04-25T14:43:48.695Z,101505.43
2018-04-25T14:46:52.094Z,101507.69
2018-04-25T14:49:55.377Z,101511.67
2018-04-25T14:52:58.704Z,101516.00
2018-04-25T14:56:02.085Z,101516.33
2018-04-25T14:59:05.863Z,101506.71
2018-04-25T15:02:09.353Z,101507.43
2018-04-25T15:05:12.722Z,101503.66
2018-04-25T15:08:16.011Z,101488.58
2018-04-25T15:11:19.416Z,101486.81
2018-04-25T15:14:23.791Z,101485.96
2018-04-25T15:17:27.005Z,101488.01
2018-04-25T15:20:30.401Z,101486.46
2018-04-25T15:23:33.684Z,101480.88
2018-04-25T15:26:37.187Z,101485.13
2018-04-25T15:29:40.530Z,101485.31
2018-04-25T15:32:45.341Z,101480.97
2018-04-25T15:35:48.606Z,101480.99
2018-04-25T15:38:51.937Z,101488.83
2018-04-25T15:41:55.257Z,101481.46
2018-04-25T15:44:58.679Z,101484.54
2018-04-25T15:48:02.112Z,101472.46
2018-04-25T15:51:06.059Z,101473.86
2018-04-25T15:54:09.419Z,101468.22
2018-04-25T15:57:12.740Z,101463.62
2018-04-25T16:00:17.131Z,101466.56
2018-04-25T16:03:20.516Z,101468.18
2018-04-25T16:06:24.819Z,101469.26
2018-04-25T16:09:28.214Z,101475.19
2018-04-25T16:12:31.590Z,101481.21
2018-04-25T16:15:35.972Z,101484.77
2018-04-25T16:18:39.424Z,101478.07
2018-04-25T16:21:42.726Z,101465.65
2018-04-25T16:24:46.196Z,101463.95
2018-04-25T16:27:49.479Z,101466.60
2018-04-25T16:30:52.814Z,101458.28
2018-04-25T16:33:57.164Z,101460.42
2018-04-25T16:37:00.519Z,101458.47
2018-04-25T16:40:04.792Z,101457.66
2018-04-25T16:43:08.273Z,101453.93
2018-04-25T16:46:11.461Z,101445.67
2018-04-25T16:49:14.719Z,101442.86
2018-04-25T16:52:18.005Z,101434.94
2018-04-25T16:55:21.436Z,101436.30
2018-04-25T16:58:25.058Z,101426.02
2018-04-25T17:01:28.426Z,101429.82
2018-04-25T17:04:31.752Z,101430.16
2018-04-25T17:07:36.642Z,101432.46
2018-04-25T17:10:40.063Z,101431.46
2018-04-25T17:13:43.488Z,101430.91
2018-04-25T17:16:46.652Z,101439.09
2018-04-25T17:19:49.916Z,101431.98
2018-04-25T17:22:57.037Z,101437.31
2018-04-25T17:26:01.328Z,101430.49
2018-04-25T17:29:05.380Z,101426.77
2018-04-25T17:32:08.941Z,101432.19
2018-04-25T17:35:12.289Z,101434.05
2018-04-25T17:38:15.603Z,101455.47
2018-04-25T17:41:19.042Z,101455.56
2018-04-25T17:44:23.641Z,101458.08
2018-04-25T17:47:27.032Z,101463.83
2018-04-25T17:50:30.340Z,101467.73
2018-04-25T17:53:33.615Z,101473.13
2018-04-25T17:56:37.091Z,101491.64
2018-04-25T17:59:40.361Z,101508.01
2018-04-25T18:02:43.711Z,101530.58
2018-04-25T18:05:47.092Z,101548.54
2018-04-25T18:08:51.356Z,101551.44
2018-04-25T18:11:54.688Z,101559.51
2018-04-25T18:14:57.905Z,101579.19
2018-04-25T18:18:01.963Z,101575.68
2018-04-25T18:21:05.537Z,101582.28
2018-04-25T18:24:08.983Z,101594.06
2018-04-25T18:27:12.290Z,101595.08
2018-04-25T18:30:16.608Z,101594.43
2018-04-25T18:33:19.924Z,101593.26
2018-04-25T18:36:24.157Z,101598.85
2018-04-25T18:39:27.368Z,101600.32
2018-04-25T18:42:30.872Z,101605.19
2018-04-25T18:45:34.097Z,101608.53
2018-04-25T18:48:37.376Z,101618.70
2018-04-25T18:51:41.631Z,101617.59
2018-04-25T18:54:44.840Z,101614.64
2018-04-25T18:57:49.206Z,101619.67
2018-04-25T19:00:53.433Z,101621.29
2018-04-25T19:03:56.725Z,101625.16
2018-04-25T19:07:00.205Z,101628.71
2018-04-25T19:10:03.581Z,101631.82
2018-04-25T19:13:06.824Z,101641.55
2018-04-25T19:16:10.122Z,101647.61
2018-04-25T19:19:13.350Z,101654.19
2018-04-25T19:22:16.623Z,101656.87
2018-04-25T19:25:19.889Z,101663.81
2018-04-25T19:28:24.608Z,101674.70
2018-04-25T19:31:27.970Z,101681.80
2018-04-25T19:34:31.342Z,101680.75
2018-04-25T19:37:34.812Z,101685.15
2018-04-25T19:40:38.656Z,101685.94
2018-04-25T19:43:42.228Z,101690.06
2018-04-25T19:46:45.582Z,101686.81
2018-04-25T19:49:49.248Z,101693.60
2018-04-25T19:52:53.683Z,101702.81
2018-04-25T19:55:57.093Z,101701.47
2018-04-25T19:59:00.328Z,101703.72
2018-04-25T20:02:03.559Z,101716.18
2018-04-25T20:05:06.997Z,101710.82
2018-04-25T20:08:10.263Z,101720.96
2018-04-25T20:11:13.584Z,101721.06
2018-04-25T20:14:16.779Z,101732.53
2018-04-25T20:17:20.116Z,101739.63
2018-04-25T20:20:24.631Z,101749.23
2018-04-25T20:23:27.895Z,101750.58
2018-04-25T20:26:31.275Z,101747.37
2018-04-25T20:29:34.607Z,101747.47
2018-04-25T20:32:37.996Z,101754.80
2018-04-25T20:35:41.473Z,101753.37
2018-04-25T20:38:44.763Z,101741.92
2018-04-25T20:41:49.161Z,101730.20
2018-04-25T20:44:53.284Z,101730.20
2018-04-25T20:47:56.635Z,101742.76
2018-04-25T20:50:59.848Z,101734.95
2018-04-25T20:54:04.981Z,101727.78
2018-04-25T20:57:09.092Z,101728.85
2018-04-25T21:00:13.163Z,101738.93
2018-04-25T21:03:17.009Z,101742.19
2018-04-25T21:06:21.320Z,101736.55
2018-04-25T21:09:25.506Z,101730.95
2018-04-25T21:12:29.332Z,101724.78
2018-04-25T21:15:32.983Z,101731.37
2018-04-25T21:18:37.578Z,101729.94
2018-04-25T21:21:40.906Z,101730.02
2018-04-25T21:24:45.125Z,101741.94
2018-04-25T21:27:48.253Z,101740.08
2018-04-25T21:30:51.488Z,101747.68
2018-04-25T21:33:54.768Z,101749.00
2018-04-25T21:36:58.097Z,101746.98
2018-04-25T21:40:01.389Z,101746.13
2018-04-25T21:43:04.670Z,101748.24
2018-04-25T21:46:08.473Z,101752.85
2018-04-25T21:49:11.768Z,101752.75
2018-04-25T21:52:16.140Z,101760.96
2018-04-25T21:55:19.414Z,101763.35
2018-04-25T21:58:22.718Z,101766.93
2018-04-25T22:01:27.021Z,101771.51
2018-04-25T22:04:30.228Z,101773.55
2018-04-25T22:07:33.425Z,101780.04
2018-04-25T22:10:36.833Z,101787.77
2018-04-25T22:13:40.297Z,101786.83
2018-04-25T22:16:43.937Z,101789.01
2018-04-25T22:19:47.252Z,101790.66
2018-04-25T22:22:50.624Z,101800.51
2018-04-25T22:25:53.930Z,101807.83
2018-04-25T22:28:57.348Z,101807.06
2018-04-25T22:32:00.653Z,101807.54
2018-04-25T22:35:04.023Z,101809.96
2018-04-25T22:38:07.336Z,101804.80
2018-04-25T22:41:10.638Z,101799.76
2018-04-25T22:44:14.581Z,101798.59
2018-04-25T22:47:17.712Z,101804.53
2018-04-25T22:50:21.029Z,101812.64
2018-04-25T22:53:24.259Z,101813.42
2018-04-25T22:56:27.539Z,101815.43
2018-04-25T22:59:30.803Z,101819.75
2018-04-25T23:02:34.048Z,101803.81
2018-04-25T23:05:37.255Z,101791.41
2018-04-25T23:08:40.541Z,101801.20
2018-04-25T23:11:44.129Z,101807.19
2018-04-25T23:14:47.423Z,101813.59
2018-04-25T23:17:50.744Z,101817.57
2018-04-25T23:20:54.038Z,101822.53
2018-04-25T23:23:57.295Z,101822.97
2018-04-25T23:27:00.588Z,101824.86
2018-04-25T23:30:03.892Z,101822.27
2018-04-25T23:33:07.207Z,101816.17
2018-04-25T23:36:10.530Z,101805.89
2018-04-25T23:39:14.432Z,101805.96
2018-04-25T23:42:17.693Z,101803.16
2018-04-25T23:45:20.984Z,101814.33
2018-04-25T23:48:24.259Z,101826.44
2018-04-25T23:51:27.610Z,101837.39
2018-04-25T23:54:30.953Z,101839.89
2018-04-25T23:57:34.296Z,101847.91
